KRIC/RIC METAR and TAF weather

Enter ICAO airport designator
Station Type Date Time Source
KRIC METAR 2022/06/30 13:54 UTC NOAA

KRIC 301354Z 22005KT 10SM FEW010 28/22 A3024 RMK AO2 SLP243 T02780217


Station Type Date Time Source
KRIC Decoded METAR 2022/06/30 13:54 UTC NOAA

RICHMOND INTERNATIONAL AIRPORT, VA, United States (KRIC) 37-31N 077-19W 50M
Jun 30, 2022 - 09:54 AM EDT / 2022.06.30 1354 UTC
Wind: from the SW (220 degrees) at 6 MPH (5 KT):0
Visibility: 10 mile(s):0
Sky conditions: mostly clear
Temperature: 82.0 F (27.8 C)
Dew Point: 71.1 F (21.7 C)
Relative Humidity: 69%
Pressure (altimeter): 30.24 in. Hg (1024 hPa)
ob: KRIC 301354Z 22005KT 10SM FEW010 28/22 A3024 RMK AO2 SLP243 T02780217
cycle: 14

Station Type Date Time Source
KRIC TAF 2022/06/30 12:22 UTC NOAA

TAF KRIC 301120Z 3012/0112 VRB03KT P6SM SCT200
FM301500 17005KT P6SM SCT050

Example: see airport list